sensor_id;sensor_type;location;lat;lon;timestamp;P1;durP1;ratioP1;P2;durP2;ratioP2
58310;SDS011;45001;52.218;5.154;2022-10-16T00:00:56;2.35;;;1.10;;
58310;SDS011;45001;52.218;5.154;2022-10-16T00:03:21;2.88;;;1.15;;
58310;SDS011;45001;52.218;5.154;2022-10-16T00:05:46;1.92;;;1.17;;
58310;SDS011;45001;52.218;5.154;2022-10-16T00:08:11;5.25;;;0.98;;
58310;SDS011;45001;52.218;5.154;2022-10-16T00:10:37;2.67;;;1.00;;
58310;SDS011;45001;52.218;5.154;2022-10-16T00:13:03;2.60;;;1.15;;
58310;SDS011;45001;52.218;5.154;2022-10-16T00:15:29;2.30;;;0.93;;
58310;SDS011;45001;52.218;5.154;2022-10-16T00:17:57;3.45;;;1.33;;
58310;SDS011;45001;52.218;5.154;2022-10-16T00:20:22;2.67;;;1.00;;
58310;SDS011;45001;52.218;5.154;2022-10-16T00:22:48;3.15;;;1.13;;
58310;SDS011;45001;52.218;5.154;2022-10-16T00:25:13;2.80;;;1.20;;
58310;SDS011;45001;52.218;5.154;2022-10-16T00:27:38;2.92;;;1.13;;
58310;SDS011;45001;52.218;5.154;2022-10-16T00:30:04;2.90;;;1.40;;
58310;SDS011;45001;52.218;5.154;2022-10-16T00:32:30;3.17;;;1.10;;
58310;SDS011;45001;52.218;5.154;2022-10-16T00:34:55;2.20;;;1.00;;
58310;SDS011;45001;52.218;5.154;2022-10-16T00:37:20;3.05;;;1.00;;
58310;SDS011;45001;52.218;5.154;2022-10-16T00:39:46;2.95;;;1.00;;
58310;SDS011;45001;52.218;5.154;2022-10-16T00:42:15;1.80;;;1.17;;
58310;SDS011;45001;52.218;5.154;2022-10-16T00:47:10;2.95;;;1.20;;
58310;SDS011;45001;52.218;5.154;2022-10-16T00:49:38;1.55;;;0.90;;
58310;SDS011;45001;52.218;5.154;2022-10-16T00:52:03;2.58;;;1.05;;
58310;SDS011;45001;52.218;5.154;2022-10-16T00:54:31;3.22;;;1.20;;
58310;SDS011;45001;52.218;5.154;2022-10-16T00:56:59;2.40;;;0.98;;
58310;SDS011;45001;52.218;5.154;2022-10-16T00:59:28;2.72;;;1.30;;
58310;SDS011;45001;52.218;5.154;2022-10-16T01:01:58;4.22;;;1.13;;
58310;SDS011;45001;52.218;5.154;2022-10-16T01:04:24;3.30;;;0.95;;
58310;SDS011;45001;52.218;5.154;2022-10-16T01:07:00;1.73;;;0.88;;
58310;SDS011;45001;52.218;5.154;2022-10-16T01:09:37;2.03;;;0.98;;
58310;SDS011;45001;52.218;5.154;2022-10-16T01:12:14;3.00;;;1.25;;
58310;SDS011;45001;52.218;5.154;2022-10-16T01:17:38;3.17;;;1.02;;
58310;SDS011;45001;52.218;5.154;2022-10-16T01:23:01;2.28;;;1.20;;
58310;SDS011;45001;52.218;5.154;2022-10-16T01:25:39;4.07;;;1.10;;
58310;SDS011;45001;52.218;5.154;2022-10-16T01:28:11;2.95;;;1.27;;
58310;SDS011;45001;52.218;5.154;2022-10-16T01:30:39;2.90;;;1.13;;
58310;SDS011;45001;52.218;5.154;2022-10-16T01:33:08;3.42;;;1.10;;
58310;SDS011;45001;52.218;5.154;2022-10-16T01:35:44;2.13;;;1.00;;
58310;SDS011;45001;52.218;5.154;2022-10-16T01:38:29;3.55;;;1.00;;
58310;SDS011;45001;52.218;5.154;2022-10-16T01:41:05;2.33;;;1.30;;
58310;SDS011;45001;52.218;5.154;2022-10-16T01:43:42;3.22;;;1.20;;
58310;SDS011;45001;52.218;5.154;2022-10-16T01:46:13;1.98;;;1.20;;
58310;SDS011;45001;52.218;5.154;2022-10-16T01:48:40;1.73;;;0.82;;
58310;SDS011;45001;52.218;5.154;2022-10-16T01:51:07;3.88;;;1.15;;
58310;SDS011;45001;52.218;5.154;2022-10-16T01:53:35;2.65;;;0.90;;
58310;SDS011;45001;52.218;5.154;2022-10-16T01:56:02;2.78;;;0.98;;
58310;SDS011;45001;52.218;5.154;2022-10-16T01:58:30;1.65;;;0.95;;
58310;SDS011;45001;52.218;5.154;2022-10-16T02:01:00;1.73;;;0.80;;
58310;SDS011;45001;52.218;5.154;2022-10-16T02:03:27;1.85;;;1.10;;
58310;SDS011;45001;52.218;5.154;2022-10-16T02:05:54;2.47;;;1.10;;
58310;SDS011;45001;52.218;5.154;2022-10-16T02:08:22;1.73;;;1.00;;
58310;SDS011;45001;52.218;5.154;2022-10-16T02:10:49;1.75;;;0.90;;
58310;SDS011;45001;52.218;5.154;2022-10-16T02:15:45;1.65;;;1.00;;
58310;SDS011;45001;52.218;5.154;2022-10-16T02:18:11;2.13;;;1.00;;
58310;SDS011;45001;52.218;5.154;2022-10-16T02:20:39;1.77;;;0.93;;
58310;SDS011;45001;52.218;5.154;2022-10-16T02:23:12;2.58;;;1.20;;
58310;SDS011;45001;52.218;5.154;2022-10-16T02:25:43;1.83;;;1.02;;
58310;SDS011;45001;52.218;5.154;2022-10-16T02:28:14;2.10;;;1.00;;
58310;SDS011;45001;52.218;5.154;2022-10-16T02:30:45;1.80;;;1.05;;
58310;SDS011;45001;52.218;5.154;2022-10-16T02:33:14;2.00;;;1.00;;
58310;SDS011;45001;52.218;5.154;2022-10-16T02:35:41;2.35;;;1.08;;
58310;SDS011;45001;52.218;5.154;2022-10-16T02:38:10;2.38;;;1.00;;
58310;SDS011;45001;52.218;5.154;2022-10-16T02:40:36;1.98;;;0.90;;
58310;SDS011;45001;52.218;5.154;2022-10-16T02:43:03;3.72;;;0.90;;
58310;SDS011;45001;52.218;5.154;2022-10-16T02:45:29;1.60;;;0.90;;
58310;SDS011;45001;52.218;5.154;2022-10-16T02:47:54;3.42;;;1.27;;
58310;SDS011;45001;52.218;5.154;2022-10-16T02:50:20;2.72;;;1.05;;
58310;SDS011;45001;52.218;5.154;2022-10-16T02:52:45;1.92;;;1.00;;
58310;SDS011;45001;52.218;5.154;2022-10-16T02:55:11;1.98;;;1.00;;
58310;SDS011;45001;52.218;5.154;2022-10-16T02:57:36;1.73;;;1.15;;
58310;SDS011;45001;52.218;5.154;2022-10-16T03:00:03;1.90;;;1.00;;
58310;SDS011;45001;52.218;5.154;2022-10-16T03:02:30;1.70;;;1.00;;
58310;SDS011;45001;52.218;5.154;2022-10-16T03:04:55;2.63;;;1.08;;
58310;SDS011;45001;52.218;5.154;2022-10-16T03:07:20;2.35;;;1.00;;
58310;SDS011;45001;52.218;5.154;2022-10-16T03:09:46;2.65;;;1.17;;
58310;SDS011;45001;52.218;5.154;2022-10-16T03:12:11;2.00;;;1.00;;
58310;SDS011;45001;52.218;5.154;2022-10-16T03:14:37;1.75;;;0.93;;
58310;SDS011;45001;52.218;5.154;2022-10-16T03:17:02;2.10;;;0.93;;
58310;SDS011;45001;52.218;5.154;2022-10-16T03:19:27;2.28;;;0.90;;
58310;SDS011;45001;52.218;5.154;2022-10-16T03:21:52;1.67;;;0.85;;
58310;SDS011;45001;52.218;5.154;2022-10-16T03:24:18;2.35;;;0.93;;
58310;SDS011;45001;52.218;5.154;2022-10-16T03:26:43;2.38;;;1.13;;
58310;SDS011;45001;52.218;5.154;2022-10-16T03:29:08;1.40;;;0.90;;
58310;SDS011;45001;52.218;5.154;2022-10-16T03:31:34;1.77;;;0.80;;
58310;SDS011;45001;52.218;5.154;2022-10-16T03:33:59;2.67;;;0.90;;
58310;SDS011;45001;52.218;5.154;2022-10-16T03:36:24;1.77;;;0.90;;
58310;SDS011;45001;52.218;5.154;2022-10-16T03:38:50;1.70;;;0.80;;
58310;SDS011;45001;52.218;5.154;2022-10-16T03:41:15;1.92;;;0.90;;
58310;SDS011;45001;52.218;5.154;2022-10-16T03:43:40;2.17;;;1.02;;
58310;SDS011;45001;52.218;5.154;2022-10-16T03:46:06;1.67;;;0.82;;
58310;SDS011;45001;52.218;5.154;2022-10-16T03:48:31;1.50;;;0.77;;
58310;SDS011;45001;52.218;5.154;2022-10-16T03:50:57;1.85;;;0.70;;
58310;SDS011;45001;52.218;5.154;2022-10-16T03:53:22;1.95;;;0.73;;
58310;SDS011;45001;52.218;5.154;2022-10-16T03:55:48;1.45;;;0.93;;
58310;SDS011;45001;52.218;5.154;2022-10-16T03:58:13;1.45;;;0.85;;
58310;SDS011;45001;52.218;5.154;2022-10-16T04:00:42;1.58;;;0.90;;
58310;SDS011;45001;52.218;5.154;2022-10-16T04:03:09;1.60;;;0.80;;
58310;SDS011;45001;52.218;5.154;2022-10-16T04:05:35;1.08;;;0.63;;
58310;SDS011;45001;52.218;5.154;2022-10-16T04:08:00;1.70;;;1.17;;
58310;SDS011;45001;52.218;5.154;2022-10-16T04:10:26;1.42;;;0.70;;
58310;SDS011;45001;52.218;5.154;2022-10-16T04:12:51;1.60;;;0.80;;
58310;SDS011;45001;52.218;5.154;2022-10-16T04:15:19;1.65;;;0.90;;
58310;SDS011;45001;52.218;5.154;2022-10-16T04:17:44;1.15;;;0.70;;
58310;SDS011;45001;52.218;5.154;2022-10-16T04:20:10;1.25;;;0.70;;
58310;SDS011;45001;52.218;5.154;2022-10-16T04:22:35;1.38;;;0.63;;
58310;SDS011;45001;52.218;5.154;2022-10-16T04:25:00;2.20;;;0.70;;
58310;SDS011;45001;52.218;5.154;2022-10-16T04:27:25;1.30;;;0.80;;
58310;SDS011;45001;52.218;5.154;2022-10-16T04:29:51;1.70;;;0.90;;
58310;SDS011;45001;52.218;5.154;2022-10-16T04:32:16;1.20;;;0.60;;
58310;SDS011;45001;52.218;5.154;2022-10-16T04:34:41;2.60;;;1.10;;
58310;SDS011;45001;52.218;5.154;2022-10-16T04:37:07;1.90;;;1.05;;
58310;SDS011;45001;52.218;5.154;2022-10-16T04:39:32;1.30;;;0.80;;
58310;SDS011;45001;52.218;5.154;2022-10-16T04:41:57;1.40;;;0.70;;
58310;SDS011;45001;52.218;5.154;2022-10-16T04:44:23;2.33;;;0.70;;
58310;SDS011;45001;52.218;5.154;2022-10-16T04:46:50;1.38;;;0.70;;
58310;SDS011;45001;52.218;5.154;2022-10-16T04:49:15;1.30;;;0.75;;
58310;SDS011;45001;52.218;5.154;2022-10-16T04:51:41;1.83;;;0.90;;
58310;SDS011;45001;52.218;5.154;2022-10-16T04:54:06;2.42;;;0.98;;
58310;SDS011;45001;52.218;5.154;2022-10-16T04:56:31;1.70;;;0.77;;
58310;SDS011;45001;52.218;5.154;2022-10-16T04:58:57;1.02;;;0.65;;
58310;SDS011;45001;52.218;5.154;2022-10-16T05:01:22;1.83;;;0.70;;
58310;SDS011;45001;52.218;5.154;2022-10-16T05:03:48;1.52;;;0.75;;
58310;SDS011;45001;52.218;5.154;2022-10-16T05:06:13;2.17;;;0.70;;
58310;SDS011;45001;52.218;5.154;2022-10-16T05:08:38;1.60;;;0.80;;
58310;SDS011;45001;52.218;5.154;2022-10-16T05:11:03;1.33;;;0.60;;
58310;SDS011;45001;52.218;5.154;2022-10-16T05:13:29;1.80;;;0.90;;
58310;SDS011;45001;52.218;5.154;2022-10-16T05:15:54;1.08;;;0.57;;
58310;SDS011;45001;52.218;5.154;2022-10-16T05:18:19;1.92;;;0.73;;
58310;SDS011;45001;52.218;5.154;2022-10-16T05:20:45;0.82;;;0.50;;
58310;SDS011;45001;52.218;5.154;2022-10-16T05:23:10;1.52;;;0.80;;
58310;SDS011;45001;52.218;5.154;2022-10-16T05:25:36;1.52;;;0.75;;
58310;SDS011;45001;52.218;5.154;2022-10-16T05:28:02;1.33;;;0.70;;
58310;SDS011;45001;52.218;5.154;2022-10-16T05:30:27;2.00;;;1.02;;
58310;SDS011;45001;52.218;5.154;2022-10-16T05:32:53;2.17;;;0.73;;
58310;SDS011;45001;52.218;5.154;2022-10-16T05:35:18;1.52;;;0.80;;
58310;SDS011;45001;52.218;5.154;2022-10-16T05:37:44;1.35;;;0.77;;
58310;SDS011;45001;52.218;5.154;2022-10-16T05:40:10;1.90;;;0.80;;
58310;SDS011;45001;52.218;5.154;2022-10-16T05:42:36;0.88;;;0.50;;
58310;SDS011;45001;52.218;5.154;2022-10-16T05:45:02;1.98;;;0.80;;
58310;SDS011;45001;52.218;5.154;2022-10-16T05:47:28;1.77;;;0.70;;
58310;SDS011;45001;52.218;5.154;2022-10-16T05:49:54;1.20;;;0.60;;
58310;SDS011;45001;52.218;5.154;2022-10-16T05:52:19;1.45;;;0.75;;
58310;SDS011;45001;52.218;5.154;2022-10-16T05:54:45;2.20;;;0.80;;
58310;SDS011;45001;52.218;5.154;2022-10-16T05:57:10;2.05;;;0.70;;
58310;SDS011;45001;52.218;5.154;2022-10-16T05:59:35;2.60;;;0.82;;
58310;SDS011;45001;52.218;5.154;2022-10-16T06:02:00;1.73;;;0.73;;
58310;SDS011;45001;52.218;5.154;2022-10-16T06:04:26;1.95;;;1.00;;
58310;SDS011;45001;52.218;5.154;2022-10-16T06:06:51;1.60;;;0.77;;
58310;SDS011;45001;52.218;5.154;2022-10-16T06:09:16;1.30;;;0.68;;
58310;SDS011;45001;52.218;5.154;2022-10-16T06:11:42;1.58;;;0.82;;
58310;SDS011;45001;52.218;5.154;2022-10-16T06:14:07;2.15;;;0.90;;
58310;SDS011;45001;52.218;5.154;2022-10-16T06:16:34;1.73;;;0.63;;
58310;SDS011;45001;52.218;5.154;2022-10-16T06:19:00;1.85;;;0.75;;
58310;SDS011;45001;52.218;5.154;2022-10-16T06:21:27;1.80;;;0.80;;
58310;SDS011;45001;52.218;5.154;2022-10-16T06:23:53;1.15;;;0.70;;
58310;SDS011;45001;52.218;5.154;2022-10-16T06:26:20;2.65;;;0.75;;
58310;SDS011;45001;52.218;5.154;2022-10-16T06:28:48;2.15;;;0.80;;
58310;SDS011;45001;52.218;5.154;2022-10-16T06:31:14;1.33;;;0.80;;
58310;SDS011;45001;52.218;5.154;2022-10-16T06:33:40;1.42;;;0.80;;
58310;SDS011;45001;52.218;5.154;2022-10-16T06:36:06;1.50;;;0.55;;
58310;SDS011;45001;52.218;5.154;2022-10-16T06:38:39;1.70;;;0.80;;
58310;SDS011;45001;52.218;5.154;2022-10-16T06:41:05;2.55;;;0.90;;
58310;SDS011;45001;52.218;5.154;2022-10-16T06:43:32;5.50;;;1.00;;
58310;SDS011;45001;52.218;5.154;2022-10-16T06:46:00;1.70;;;0.90;;
58310;SDS011;45001;52.218;5.154;2022-10-16T06:48:26;1.30;;;0.63;;
58310;SDS011;45001;52.218;5.154;2022-10-16T06:53:30;1.83;;;0.70;;
58310;SDS011;45001;52.218;5.154;2022-10-16T06:55:57;1.20;;;0.52;;
58310;SDS011;45001;52.218;5.154;2022-10-16T06:58:23;2.42;;;0.80;;
58310;SDS011;45001;52.218;5.154;2022-10-16T07:00:49;1.77;;;0.80;;
58310;SDS011;45001;52.218;5.154;2022-10-16T07:03:20;1.40;;;0.68;;
58310;SDS011;45001;52.218;5.154;2022-10-16T07:05:46;1.30;;;0.70;;
58310;SDS011;45001;52.218;5.154;2022-10-16T07:08:11;1.70;;;0.73;;
58310;SDS011;45001;52.218;5.154;2022-10-16T07:10:36;2.00;;;0.98;;
58310;SDS011;45001;52.218;5.154;2022-10-16T07:13:05;2.45;;;1.00;;
58310;SDS011;45001;52.218;5.154;2022-10-16T07:15:32;2.30;;;0.70;;
58310;SDS011;45001;52.218;5.154;2022-10-16T07:17:57;1.88;;;0.98;;
58310;SDS011;45001;52.218;5.154;2022-10-16T07:20:22;1.63;;;0.70;;
58310;SDS011;45001;52.218;5.154;2022-10-16T07:22:48;1.70;;;0.70;;
58310;SDS011;45001;52.218;5.154;2022-10-16T07:25:13;1.02;;;0.52;;
58310;SDS011;45001;52.218;5.154;2022-10-16T07:27:38;1.58;;;0.90;;
58310;SDS011;45001;52.218;5.154;2022-10-16T07:30:04;2.75;;;0.88;;
58310;SDS011;45001;52.218;5.154;2022-10-16T07:32:30;2.05;;;0.80;;
58310;SDS011;45001;52.218;5.154;2022-10-16T07:34:56;1.50;;;0.60;;
58310;SDS011;45001;52.218;5.154;2022-10-16T07:37:21;2.38;;;0.70;;
58310;SDS011;45001;52.218;5.154;2022-10-16T07:39:47;2.55;;;0.80;;
58310;SDS011;45001;52.218;5.154;2022-10-16T07:42:12;2.42;;;1.00;;
58310;SDS011;45001;52.218;5.154;2022-10-16T07:44:37;1.98;;;0.65;;
58310;SDS011;45001;52.218;5.154;2022-10-16T07:47:03;1.48;;;0.63;;
58310;SDS011;45001;52.218;5.154;2022-10-16T07:49:28;1.83;;;0.70;;
58310;SDS011;45001;52.218;5.154;2022-10-16T07:51:53;1.73;;;0.85;;
58310;SDS011;45001;52.218;5.154;2022-10-16T07:54:19;1.75;;;0.70;;
58310;SDS011;45001;52.218;5.154;2022-10-16T07:56:44;2.13;;;0.80;;
58310;SDS011;45001;52.218;5.154;2022-10-16T07:59:09;1.35;;;0.63;;
58310;SDS011;45001;52.218;5.154;2022-10-16T08:01:35;1.58;;;0.98;;
58310;SDS011;45001;52.218;5.154;2022-10-16T08:04:00;2.88;;;1.00;;
58310;SDS011;45001;52.218;5.154;2022-10-16T08:06:25;2.65;;;0.88;;
58310;SDS011;45001;52.218;5.154;2022-10-16T08:08:51;1.38;;;0.85;;
58310;SDS011;45001;52.218;5.154;2022-10-16T08:11:16;2.70;;;1.00;;
58310;SDS011;45001;52.218;5.154;2022-10-16T08:13:41;1.48;;;0.68;;
58310;SDS011;45001;52.218;5.154;2022-10-16T08:16:07;2.78;;;0.90;;
58310;SDS011;45001;52.218;5.154;2022-10-16T08:18:34;1.50;;;0.70;;
58310;SDS011;45001;52.218;5.154;2022-10-16T08:21:00;2.67;;;0.80;;
58310;SDS011;45001;52.218;5.154;2022-10-16T08:23:27;1.60;;;0.80;;
58310;SDS011;45001;52.218;5.154;2022-10-16T08:25:54;1.67;;;1.00;;
58310;SDS011;45001;52.218;5.154;2022-10-16T08:28:21;3.28;;;1.10;;
58310;SDS011;45001;52.218;5.154;2022-10-16T08:30:47;1.40;;;0.88;;
58310;SDS011;45001;52.218;5.154;2022-10-16T08:33:12;2.25;;;0.80;;
58310;SDS011;45001;52.218;5.154;2022-10-16T08:35:38;3.17;;;1.00;;
58310;SDS011;45001;52.218;5.154;2022-10-16T08:38:04;1.60;;;0.85;;
58310;SDS011;45001;52.218;5.154;2022-10-16T08:40:30;3.88;;;1.20;;
58310;SDS011;45001;52.218;5.154;2022-10-16T08:43:04;2.58;;;0.80;;
58310;SDS011;45001;52.218;5.154;2022-10-16T08:51:03;2.83;;;1.23;;
58310;SDS011;45001;52.218;5.154;2022-10-16T08:53:37;2.05;;;1.00;;
58310;SDS011;45001;52.218;5.154;2022-10-16T08:56:13;3.25;;;1.00;;
58310;SDS011;45001;52.218;5.154;2022-10-16T08:58:38;1.52;;;0.80;;
58310;SDS011;45001;52.218;5.154;2022-10-16T09:01:04;3.58;;;0.77;;
58310;SDS011;45001;52.218;5.154;2022-10-16T09:03:56;3.25;;;0.82;;
58310;SDS011;45001;52.218;5.154;2022-10-16T09:06:45;2.35;;;0.90;;
58310;SDS011;45001;52.218;5.154;2022-10-16T09:12:03;2.80;;;1.35;;
58310;SDS011;45001;52.218;5.154;2022-10-16T09:15:02;3.38;;;0.95;;
58310;SDS011;45001;52.218;5.154;2022-10-16T09:17:50;2.67;;;0.90;;
58310;SDS011;45001;52.218;5.154;2022-10-16T09:25:29;3.50;;;1.05;;
58310;SDS011;45001;52.218;5.154;2022-10-16T09:27:56;5.40;;;1.52;;
58310;SDS011;45001;52.218;5.154;2022-10-16T09:30:22;2.10;;;1.10;;
58310;SDS011;45001;52.218;5.154;2022-10-16T09:32:48;2.97;;;0.90;;
58310;SDS011;45001;52.218;5.154;2022-10-16T09:35:17;4.65;;;1.08;;
58310;SDS011;45001;52.218;5.154;2022-10-16T09:37:45;2.97;;;0.82;;
58310;SDS011;45001;52.218;5.154;2022-10-16T09:40:24;3.85;;;0.95;;
58310;SDS011;45001;52.218;5.154;2022-10-16T09:45:53;3.13;;;0.93;;
58310;SDS011;45001;52.218;5.154;2022-10-16T09:48:21;3.13;;;0.90;;
58310;SDS011;45001;52.218;5.154;2022-10-16T09:50:59;3.25;;;0.85;;
58310;SDS011;45001;52.218;5.154;2022-10-16T09:53:26;4.95;;;1.25;;
58310;SDS011;45001;52.218;5.154;2022-10-16T09:56:04;3.83;;;1.02;;
58310;SDS011;45001;52.218;5.154;2022-10-16T09:58:31;3.95;;;1.48;;
58310;SDS011;45001;52.218;5.154;2022-10-16T10:00:58;3.85;;;1.17;;
58310;SDS011;45001;52.218;5.154;2022-10-16T10:03:33;3.50;;;1.23;;
58310;SDS011;45001;52.218;5.154;2022-10-16T10:09:24;3.57;;;1.13;;
58310;SDS011;45001;52.218;5.154;2022-10-16T10:11:50;2.70;;;1.30;;
58310;SDS011;45001;52.218;5.154;2022-10-16T10:14:24;4.70;;;1.10;;
58310;SDS011;45001;52.218;5.154;2022-10-16T10:20:33;3.63;;;1.42;;
58310;SDS011;45001;52.218;5.154;2022-10-16T10:22:45;4.05;;;1.17;;
58310;SDS011;45001;52.218;5.154;2022-10-16T10:32:41;3.53;;;1.20;;
58310;SDS011;45001;52.218;5.154;2022-10-16T10:35:19;6.00;;;1.73;;
58310;SDS011;45001;52.218;5.154;2022-10-16T10:54:28;8.30;;;1.80;;
58310;SDS011;45001;52.218;5.154;2022-10-16T10:57:02;8.80;;;1.80;;
58310;SDS011;45001;52.218;5.154;2022-10-16T11:02:18;9.73;;;1.77;;
58310;SDS011;45001;52.218;5.154;2022-10-16T11:10:47;9.15;;;1.90;;
58310;SDS011;45001;52.218;5.154;2022-10-16T11:13:23;6.40;;;1.60;;
58310;SDS011;45001;52.218;5.154;2022-10-16T11:16:00;8.00;;;2.30;;
58310;SDS011;45001;52.218;5.154;2022-10-16T11:21:18;7.25;;;1.35;;
58310;SDS011;45001;52.218;5.154;2022-10-16T11:23:51;7.20;;;1.45;;
58310;SDS011;45001;52.218;5.154;2022-10-16T11:26:29;5.93;;;1.35;;
58310;SDS011;45001;52.218;5.154;2022-10-16T11:28:59;6.30;;;1.40;;
58310;SDS011;45001;52.218;5.154;2022-10-16T11:31:36;5.05;;;1.48;;
58310;SDS011;45001;52.218;5.154;2022-10-16T11:39:22;6.23;;;1.67;;
58310;SDS011;45001;52.218;5.154;2022-10-16T11:44:33;5.68;;;1.35;;
58310;SDS011;45001;52.218;5.154;2022-10-16T11:47:15;4.70;;;1.80;;
58310;SDS011;45001;52.218;5.154;2022-10-16T11:49:52;6.72;;;1.38;;
58310;SDS011;45001;52.218;5.154;2022-10-16T11:52:24;4.25;;;1.60;;
58310;SDS011;45001;52.218;5.154;2022-10-16T12:00:51;5.95;;;1.33;;
58310;SDS011;45001;52.218;5.154;2022-10-16T12:03:29;4.18;;;1.55;;
58310;SDS011;45001;52.218;5.154;2022-10-16T12:08:43;4.85;;;1.80;;
58310;SDS011;45001;52.218;5.154;2022-10-16T12:16:38;4.68;;;1.20;;
58310;SDS011;45001;52.218;5.154;2022-10-16T12:19:15;4.50;;;1.38;;
58310;SDS011;45001;52.218;5.154;2022-10-16T12:21:42;4.53;;;1.30;;
58310;SDS011;45001;52.218;5.154;2022-10-16T12:24:21;5.72;;;1.20;;
58310;SDS011;45001;52.218;5.154;2022-10-16T12:27:19;3.83;;;1.27;;
58310;SDS011;45001;52.218;5.154;2022-10-16T12:29:59;5.28;;;1.27;;
58310;SDS011;45001;52.218;5.154;2022-10-16T12:32:33;5.47;;;1.30;;
58310;SDS011;45001;52.218;5.154;2022-10-16T12:35:00;7.07;;;1.50;;
58310;SDS011;45001;52.218;5.154;2022-10-16T12:37:37;4.03;;;1.17;;
58310;SDS011;45001;52.218;5.154;2022-10-16T12:40:22;5.22;;;1.45;;
58310;SDS011;45001;52.218;5.154;2022-10-16T12:42:49;4.40;;;1.45;;
58310;SDS011;45001;52.218;5.154;2022-10-16T12:45:25;5.05;;;1.40;;
58310;SDS011;45001;52.218;5.154;2022-10-16T12:47:51;4.45;;;1.13;;
58310;SDS011;45001;52.218;5.154;2022-10-16T12:50:23;4.22;;;1.15;;
58310;SDS011;45001;52.218;5.154;2022-10-16T12:52:53;4.43;;;1.27;;
58310;SDS011;45001;52.218;5.154;2022-10-16T12:55:19;4.78;;;1.38;;
58310;SDS011;45001;52.218;5.154;2022-10-16T13:01:07;5.53;;;1.17;;
58310;SDS011;45001;52.218;5.154;2022-10-16T13:06:33;3.75;;;1.35;;
58310;SDS011;45001;52.218;5.154;2022-10-16T13:17:11;3.78;;;1.00;;
58310;SDS011;45001;52.218;5.154;2022-10-16T13:27:43;5.07;;;1.35;;
58310;SDS011;45001;52.218;5.154;2022-10-16T13:30:18;3.80;;;1.33;;
58310;SDS011;45001;52.218;5.154;2022-10-16T13:32:45;3.53;;;1.20;;
58310;SDS011;45001;52.218;5.154;2022-10-16T13:35:34;2.92;;;0.93;;
58310;SDS011;45001;52.218;5.154;2022-10-16T13:38:14;3.15;;;1.00;;
58310;SDS011;45001;52.218;5.154;2022-10-16T13:43:44;5.93;;;1.35;;
58310;SDS011;45001;52.218;5.154;2022-10-16T13:48:38;4.97;;;1.20;;
58310;SDS011;45001;52.218;5.154;2022-10-16T13:51:25;2.95;;;1.20;;
58310;SDS011;45001;52.218;5.154;2022-10-16T13:53:49;4.10;;;1.25;;
58310;SDS011;45001;52.218;5.154;2022-10-16T13:56:16;3.30;;;1.05;;
58310;SDS011;45001;52.218;5.154;2022-10-16T13:58:44;3.33;;;0.90;;
58310;SDS011;45001;52.218;5.154;2022-10-16T14:01:23;3.53;;;1.67;;
58310;SDS011;45001;52.218;5.154;2022-10-16T14:03:52;4.53;;;1.10;;
58310;SDS011;45001;52.218;5.154;2022-10-16T14:06:19;3.03;;;1.05;;
58310;SDS011;45001;52.218;5.154;2022-10-16T14:08:49;3.33;;;0.98;;
58310;SDS011;45001;52.218;5.154;2022-10-16T14:11:21;3.97;;;1.52;;
58310;SDS011;45001;52.218;5.154;2022-10-16T14:13:48;4.05;;;1.00;;
58310;SDS011;45001;52.218;5.154;2022-10-16T14:16:18;4.18;;;1.75;;
58310;SDS011;45001;52.218;5.154;2022-10-16T14:18:49;4.68;;;1.30;;
58310;SDS011;45001;52.218;5.154;2022-10-16T14:21:21;4.05;;;1.10;;
58310;SDS011;45001;52.218;5.154;2022-10-16T14:23:46;2.75;;;0.82;;
58310;SDS011;45001;52.218;5.154;2022-10-16T14:26:13;3.33;;;1.15;;
58310;SDS011;45001;52.218;5.154;2022-10-16T14:28:41;4.28;;;1.23;;
58310;SDS011;45001;52.218;5.154;2022-10-16T14:33:53;4.53;;;1.08;;
58310;SDS011;45001;52.218;5.154;2022-10-16T14:36:18;3.97;;;1.17;;
58310;SDS011;45001;52.218;5.154;2022-10-16T14:39:04;4.18;;;1.25;;
58310;SDS011;45001;52.218;5.154;2022-10-16T14:41:46;4.43;;;1.00;;
58310;SDS011;45001;52.218;5.154;2022-10-16T14:44:13;4.57;;;1.27;;
58310;SDS011;45001;52.218;5.154;2022-10-16T14:46:40;4.05;;;1.30;;
58310;SDS011;45001;52.218;5.154;2022-10-16T14:51:39;3.28;;;1.20;;
58310;SDS011;45001;52.218;5.154;2022-10-16T14:54:10;4.65;;;1.45;;
58310;SDS011;45001;52.218;5.154;2022-10-16T15:02:15;4.78;;;1.15;;
58310;SDS011;45001;52.218;5.154;2022-10-16T15:04:50;2.72;;;1.00;;
58310;SDS011;45001;52.218;5.154;2022-10-16T15:07:15;3.45;;;1.05;;
58310;SDS011;45001;52.218;5.154;2022-10-16T15:09:40;3.38;;;1.13;;
58310;SDS011;45001;52.218;5.154;2022-10-16T15:12:06;2.20;;;0.82;;
58310;SDS011;45001;52.218;5.154;2022-10-16T15:14:31;2.85;;;1.10;;
58310;SDS011;45001;52.218;5.154;2022-10-16T15:16:56;2.90;;;1.20;;
58310;SDS011;45001;52.218;5.154;2022-10-16T15:19:22;3.95;;;1.05;;
58310;SDS011;45001;52.218;5.154;2022-10-16T15:21:47;2.47;;;0.90;;
58310;SDS011;45001;52.218;5.154;2022-10-16T15:24:13;2.25;;;0.80;;
58310;SDS011;45001;52.218;5.154;2022-10-16T15:26:39;2.95;;;1.00;;
58310;SDS011;45001;52.218;5.154;2022-10-16T15:29:04;3.85;;;1.10;;
58310;SDS011;45001;52.218;5.154;2022-10-16T15:31:30;3.20;;;0.82;;
58310;SDS011;45001;52.218;5.154;2022-10-16T15:33:55;3.38;;;1.30;;
58310;SDS011;45001;52.218;5.154;2022-10-16T15:36:29;2.63;;;1.23;;
58310;SDS011;45001;52.218;5.154;2022-10-16T15:39:02;2.88;;;1.05;;
58310;SDS011;45001;52.218;5.154;2022-10-16T15:41:29;3.17;;;1.35;;
58310;SDS011;45001;52.218;5.154;2022-10-16T15:43:54;4.05;;;1.20;;
58310;SDS011;45001;52.218;5.154;2022-10-16T15:46:20;2.80;;;0.98;;
58310;SDS011;45001;52.218;5.154;2022-10-16T15:48:47;2.58;;;1.33;;
58310;SDS011;45001;52.218;5.154;2022-10-16T15:51:14;3.88;;;1.08;;
58310;SDS011;45001;52.218;5.154;2022-10-16T15:53:40;1.73;;;0.93;;
58310;SDS011;45001;52.218;5.154;2022-10-16T15:56:05;4.22;;;1.42;;
58310;SDS011;45001;52.218;5.154;2022-10-16T15:58:32;3.08;;;0.90;;
58310;SDS011;45001;52.218;5.154;2022-10-16T16:00:58;2.60;;;1.08;;
58310;SDS011;45001;52.218;5.154;2022-10-16T16:03:31;3.55;;;1.17;;
58310;SDS011;45001;52.218;5.154;2022-10-16T16:05:57;3.03;;;1.02;;
58310;SDS011;45001;52.218;5.154;2022-10-16T16:08:23;2.90;;;1.05;;
58310;SDS011;45001;52.218;5.154;2022-10-16T16:11:02;2.40;;;1.00;;
58310;SDS011;45001;52.218;5.154;2022-10-16T16:13:29;3.05;;;1.10;;
58310;SDS011;45001;52.218;5.154;2022-10-16T16:15:54;2.70;;;0.90;;
58310;SDS011;45001;52.218;5.154;2022-10-16T16:18:20;3.50;;;1.20;;
58310;SDS011;45001;52.218;5.154;2022-10-16T16:20:45;2.80;;;1.13;;
58310;SDS011;45001;52.218;5.154;2022-10-16T16:23:10;2.67;;;1.13;;
58310;SDS011;45001;52.218;5.154;2022-10-16T16:25:36;3.05;;;1.10;;
58310;SDS011;45001;52.218;5.154;2022-10-16T16:28:01;3.38;;;1.50;;
58310;SDS011;45001;52.218;5.154;2022-10-16T16:30:26;2.20;;;1.38;;
58310;SDS011;45001;52.218;5.154;2022-10-16T16:32:52;2.38;;;1.30;;
58310;SDS011;45001;52.218;5.154;2022-10-16T16:35:17;3.00;;;1.27;;
58310;SDS011;45001;52.218;5.154;2022-10-16T16:37:42;2.78;;;1.60;;
58310;SDS011;45001;52.218;5.154;2022-10-16T16:40:08;4.55;;;1.70;;
58310;SDS011;45001;52.218;5.154;2022-10-16T16:42:33;2.80;;;1.60;;
58310;SDS011;45001;52.218;5.154;2022-10-16T16:44:58;3.28;;;1.30;;
58310;SDS011;45001;52.218;5.154;2022-10-16T16:47:24;3.15;;;1.55;;
58310;SDS011;45001;52.218;5.154;2022-10-16T16:49:49;4.97;;;1.60;;
58310;SDS011;45001;52.218;5.154;2022-10-16T16:52:14;4.45;;;1.70;;
58310;SDS011;45001;52.218;5.154;2022-10-16T16:54:40;5.97;;;2.17;;
58310;SDS011;45001;52.218;5.154;2022-10-16T16:57:05;5.03;;;2.30;;
58310;SDS011;45001;52.218;5.154;2022-10-16T16:59:31;4.40;;;2.08;;
58310;SDS011;45001;52.218;5.154;2022-10-16T17:01:59;3.53;;;1.67;;
58310;SDS011;45001;52.218;5.154;2022-10-16T17:04:24;3.45;;;1.90;;
58310;SDS011;45001;52.218;5.154;2022-10-16T17:06:51;3.38;;;1.80;;